createdAt,value
2022-12-11T00:02:19.499Z,16.99
2022-12-11T00:04:46.477Z,18.04
2022-12-11T00:07:13.139Z,17.41
2022-12-11T00:09:41.053Z,17.94
2022-12-11T00:12:12.028Z,18.11
2022-12-11T00:14:38.626Z,17.81
2022-12-11T00:17:05.293Z,18.58
2022-12-11T00:19:32.001Z,18.52
2022-12-11T00:21:58.672Z,21.33
2022-12-11T00:24:25.717Z,22.80
2022-12-11T00:26:52.383Z,21.58
2022-12-11T00:29:19.136Z,28.12
2022-12-11T00:31:45.802Z,19.35
2022-12-11T00:34:12.407Z,18.95
2022-12-11T00:36:39.265Z,18.59
2022-12-11T00:39:06.054Z,17.96
2022-12-11T00:41:32.819Z,17.45
2022-12-11T00:43:59.440Z,17.33
2022-12-11T00:46:26.125Z,16.05
2022-12-11T00:48:52.840Z,15.70
2022-12-11T00:51:19.582Z,15.45
2022-12-11T00:53:46.249Z,15.33
2022-12-11T00:56:15.050Z,15.37
2022-12-11T00:58:41.654Z,14.90
2022-12-11T01:01:13.347Z,14.04
2022-12-11T01:03:40.054Z,13.81
2022-12-11T01:06:06.919Z,13.58
2022-12-11T01:08:38.377Z,14.47
2022-12-11T01:11:07.605Z,14.88
2022-12-11T01:13:34.445Z,14.44
2022-12-11T01:16:12.481Z,14.70
2022-12-11T01:18:39.292Z,14.62
2022-12-11T01:21:10.542Z,14.85
2022-12-11T01:23:37.272Z,14.80
2022-12-11T01:26:08.639Z,14.92
2022-12-11T01:28:35.244Z,14.68
2022-12-11T01:31:01.999Z,15.13
2022-12-11T01:33:28.699Z,15.55
2022-12-11T01:35:55.559Z,15.65
2022-12-11T01:38:22.678Z,15.26
2022-12-11T01:40:50.093Z,15.85
2022-12-11T01:43:16.805Z,15.17
2022-12-11T01:45:44.444Z,15.05
2022-12-11T01:48:21.424Z,15.54
2022-12-11T01:50:52.586Z,15.51
2022-12-11T01:53:31.285Z,15.40
2022-12-11T01:55:57.909Z,15.65
2022-12-11T01:58:27.504Z,15.47
2022-12-11T02:00:54.178Z,15.88
2022-12-11T02:03:20.855Z,15.06
2022-12-11T02:05:47.542Z,15.30
2022-12-11T02:08:14.296Z,15.68
2022-12-11T02:11:04.540Z,15.29
2022-12-11T02:13:37.189Z,15.33
2022-12-11T02:16:19.823Z,15.82
2022-12-11T02:18:46.371Z,15.51
2022-12-11T02:21:12.892Z,15.55
2022-12-11T02:24:04.165Z,15.36
2022-12-11T02:26:36.757Z,15.36
2022-12-11T02:29:06.633Z,15.36
2022-12-11T02:31:40.655Z,15.87
2022-12-11T02:34:14.190Z,15.88
2022-12-11T02:36:43.538Z,16.41
2022-12-11T02:39:11.097Z,16.50
2022-12-11T02:41:37.725Z,16.58
2022-12-11T02:44:04.385Z,17.09
2022-12-11T02:46:31.036Z,16.90
2022-12-11T02:48:57.692Z,17.16
2022-12-11T02:51:27.141Z,17.63
2022-12-11T02:53:54.888Z,17.24
2022-12-11T02:56:24.518Z,17.40
2022-12-11T02:58:58.736Z,18.04
2022-12-11T03:01:26.268Z,17.45
2022-12-11T03:03:54.071Z,17.48
2022-12-11T03:06:22.049Z,17.73
2022-12-11T03:08:48.709Z,17.90
2022-12-11T03:11:15.352Z,17.15
2022-12-11T03:13:41.989Z,17.69
2022-12-11T03:16:14.275Z,17.63
2022-12-11T03:19:02.348Z,17.51
2022-12-11T03:21:43.009Z,17.67
2022-12-11T03:24:19.604Z,17.11
2022-12-11T03:26:56.573Z,17.60
2022-12-11T03:29:26.139Z,17.29
2022-12-11T03:32:09.805Z,17.70
2022-12-11T03:34:48.892Z,17.99
2022-12-11T03:37:15.582Z,19.30
2022-12-11T03:39:44.755Z,18.95
2022-12-11T03:42:12.485Z,19.18
2022-12-11T03:44:39.263Z,19.28
2022-12-11T03:47:07.086Z,19.66
2022-12-11T03:49:36.020Z,19.18
2022-12-11T03:52:03.396Z,19.93
2022-12-11T03:54:30.023Z,19.11
2022-12-11T03:56:58.190Z,18.71
2022-12-11T03:59:24.867Z,18.19
2022-12-11T04:01:51.625Z,18.23
2022-12-11T04:04:18.318Z,18.18
2022-12-11T04:06:45.010Z,18.61
2022-12-11T04:09:11.664Z,19.26
2022-12-11T04:11:38.339Z,19.73
2022-12-11T04:14:09.865Z,19.70
2022-12-11T04:16:36.510Z,18.71
2022-12-11T04:19:03.660Z,19.42
2022-12-11T04:21:32.859Z,19.20
2022-12-11T04:24:01.763Z,19.57
2022-12-11T04:26:28.397Z,19.75
2022-12-11T04:28:55.110Z,18.68
2022-12-11T04:31:21.867Z,19.30
2022-12-11T04:33:48.518Z,18.82
2022-12-11T04:36:15.128Z,19.19
2022-12-11T04:38:41.802Z,18.80
2022-12-11T04:41:10.989Z,18.44
2022-12-11T04:43:37.644Z,17.61
2022-12-11T04:46:08.760Z,17.80
2022-12-11T04:48:35.978Z,17.19
2022-12-11T04:51:02.602Z,17.44
2022-12-11T04:53:29.258Z,17.06
2022-12-11T04:55:56.143Z,17.38
2022-12-11T04:58:23.270Z,16.97
2022-12-11T05:00:49.879Z,17.05
2022-12-11T05:03:16.492Z,17.09
2022-12-11T05:05:52.964Z,16.98
2022-12-11T05:08:20.140Z,16.38
2022-12-11T05:10:56.048Z,16.98
2022-12-11T05:13:22.722Z,16.75
2022-12-11T05:15:49.365Z,16.88
2022-12-11T05:18:16.072Z,17.32
2022-12-11T05:20:42.708Z,16.04
2022-12-11T05:23:09.310Z,16.36
2022-12-11T05:25:35.995Z,16.75
2022-12-11T05:28:02.660Z,16.73
2022-12-11T05:30:29.400Z,16.80
2022-12-11T05:32:56.184Z,15.73
2022-12-11T05:35:22.801Z,15.24
2022-12-11T05:37:50.328Z,15.60
2022-12-11T05:40:17.159Z,15.49
2022-12-11T05:42:43.753Z,15.41
2022-12-11T05:45:10.925Z,16.25
2022-12-11T05:47:37.725Z,14.98
2022-12-11T05:50:04.441Z,15.19
2022-12-11T05:52:31.625Z,16.01
2022-12-11T05:54:58.241Z,15.81
2022-12-11T05:57:24.933Z,15.30
2022-12-11T05:59:51.636Z,14.72
2022-12-11T06:02:18.595Z,15.90
2022-12-11T06:04:45.290Z,16.99
2022-12-11T06:07:14.237Z,17.30
2022-12-11T06:09:40.842Z,17.54
2022-12-11T06:12:07.491Z,17.76
2022-12-11T06:14:34.192Z,17.40
2022-12-11T06:17:00.841Z,17.29
2022-12-11T06:19:29.739Z,17.73
2022-12-11T06:21:58.567Z,18.22
2022-12-11T06:24:25.236Z,17.59
2022-12-11T06:26:51.858Z,17.81
2022-12-11T06:29:18.455Z,17.98
2022-12-11T06:31:45.084Z,18.38
2022-12-11T06:34:12.348Z,17.54
2022-12-11T06:36:38.997Z,16.97
2022-12-11T06:39:05.683Z,18.09
2022-12-11T06:41:32.306Z,17.30
2022-12-11T06:43:58.920Z,17.24
2022-12-11T06:46:25.590Z,16.67
2022-12-11T06:48:52.283Z,16.60
2022-12-11T06:51:20.659Z,16.61
2022-12-11T06:53:54.253Z,16.23
2022-12-11T06:56:20.920Z,15.80
2022-12-11T06:58:47.724Z,15.95
2022-12-11T07:01:24.774Z,15.65
2022-12-11T07:03:55.235Z,15.63
2022-12-11T07:06:21.911Z,16.81
2022-12-11T07:08:48.566Z,17.00
2022-12-11T07:11:16.225Z,16.18
2022-12-11T07:13:43.023Z,17.67
2022-12-11T07:16:10.274Z,17.67
2022-12-11T07:18:40.860Z,18.10
2022-12-11T07:21:07.698Z,18.03
2022-12-11T07:23:34.553Z,19.12
2022-12-11T07:26:08.307Z,19.49
2022-12-11T07:28:34.968Z,19.64
2022-12-11T07:31:08.243Z,20.15
2022-12-11T07:33:34.906Z,19.91
2022-12-11T07:36:05.714Z,19.52
2022-12-11T07:38:32.345Z,20.19
2022-12-11T07:41:04.875Z,19.55
2022-12-11T07:43:31.781Z,19.87
2022-12-11T07:46:05.149Z,18.74
2022-12-11T07:48:31.884Z,18.83
2022-12-11T07:51:14.481Z,18.02
2022-12-11T07:53:44.931Z,17.05
2022-12-11T07:56:11.785Z,17.52
2022-12-11T07:58:38.459Z,16.80
2022-12-11T08:01:06.372Z,16.28
2022-12-11T08:03:32.997Z,16.35
2022-12-11T08:05:59.696Z,15.18
2022-12-11T08:08:26.372Z,15.01
2022-12-11T08:10:53.049Z,15.76
2022-12-11T08:13:19.699Z,14.87
2022-12-11T08:15:46.387Z,14.41
2022-12-11T08:18:13.742Z,14.06
2022-12-11T08:20:40.443Z,13.34
2022-12-11T08:23:09.182Z,12.27
2022-12-11T08:25:35.826Z,11.70
2022-12-11T08:28:02.555Z,11.37
2022-12-11T08:30:29.219Z,10.73
2022-12-11T08:32:55.938Z,9.60
2022-12-11T08:35:22.814Z,9.33
2022-12-11T08:37:49.460Z,8.87
2022-12-11T08:40:16.137Z,9.07
2022-12-11T08:42:42.869Z,8.94
2022-12-11T08:45:10.242Z,9.03
2022-12-11T08:47:37.010Z,8.61
2022-12-11T08:50:04.204Z,8.53
2022-12-11T08:52:30.858Z,8.82
2022-12-11T08:54:57.962Z,8.65
2022-12-11T08:57:24.571Z,9.69
2022-12-11T08:59:51.182Z,9.19
2022-12-11T09:02:17.872Z,9.76
2022-12-11T09:04:44.644Z,10.11
2022-12-11T09:07:11.263Z,10.73
2022-12-11T09:09:38.128Z,10.80
2022-12-11T09:12:05.008Z,10.78
2022-12-11T09:14:32.153Z,11.55
2022-12-11T09:16:58.860Z,12.01
2022-12-11T09:19:30.619Z,11.38
2022-12-11T09:21:58.809Z,11.07
2022-12-11T09:24:25.640Z,11.30
2022-12-11T09:26:52.246Z,11.39
2022-12-11T09:29:18.885Z,10.75
2022-12-11T09:31:45.509Z,10.40
2022-12-11T09:34:12.828Z,10.54
2022-12-11T09:36:40.217Z,10.84
2022-12-11T09:39:07.601Z,10.64
2022-12-11T09:41:39.057Z,10.93
2022-12-11T09:44:11.164Z,10.95
2022-12-11T09:46:37.939Z,10.90
2022-12-11T09:49:04.999Z,10.97
2022-12-11T09:51:43.528Z,11.03
2022-12-11T09:54:11.261Z,10.62
2022-12-11T09:56:56.514Z,10.37
2022-12-11T09:59:28.844Z,10.64
2022-12-11T10:02:22.484Z,10.81
2022-12-11T10:04:55.047Z,10.53
2022-12-11T10:07:41.962Z,10.31
2022-12-11T10:10:32.715Z,10.26
2022-12-11T10:13:07.657Z,10.62
2022-12-11T10:15:39.452Z,9.98
2022-12-11T10:18:09.855Z,10.02
2022-12-11T10:20:36.663Z,10.22
2022-12-11T10:23:03.759Z,10.14
2022-12-11T10:25:35.659Z,10.00
2022-12-11T10:28:15.593Z,9.71
2022-12-11T10:31:00.539Z,9.39
2022-12-11T10:33:33.735Z,9.52
2022-12-11T10:36:00.333Z,9.45
2022-12-11T10:38:31.267Z,9.78
2022-12-11T10:41:02.664Z,9.32
2022-12-11T10:43:34.024Z,10.09
2022-12-11T10:46:00.735Z,9.44
2022-12-11T10:48:27.460Z,9.05
2022-12-11T10:51:01.787Z,9.25
2022-12-11T10:53:28.520Z,9.07
2022-12-11T10:55:55.165Z,9.25
2022-12-11T10:58:23.316Z,9.58
2022-12-11T11:01:20.124Z,9.71
2022-12-11T11:04:15.421Z,9.33
2022-12-11T11:06:42.332Z,9.51
2022-12-11T11:09:31.158Z,9.47
2022-12-11T11:11:57.750Z,8.85
2022-12-11T11:14:24.362Z,8.72
2022-12-11T11:16:52.249Z,9.01
2022-12-11T11:19:30.574Z,9.48
2022-12-11T11:22:01.634Z,9.34
2022-12-11T11:24:40.794Z,9.04
2022-12-11T11:27:28.219Z,10.60
2022-12-11T11:29:55.699Z,10.43
2022-12-11T11:32:38.375Z,9.24
2022-12-11T11:35:10.857Z,10.21
2022-12-11T11:37:38.181Z,11.03
2022-12-11T11:40:18.556Z,10.98
2022-12-11T11:43:03.932Z,11.48
2022-12-11T11:45:38.092Z,12.23
2022-12-11T11:48:40.678Z,12.61
2022-12-11T11:51:13.930Z,13.15
2022-12-11T11:53:40.580Z,13.36
2022-12-11T11:56:16.471Z,12.35
2022-12-11T11:58:50.424Z,12.64
2022-12-11T12:01:18.821Z,11.99
2022-12-11T12:03:45.706Z,12.30
2022-12-11T12:06:18.818Z,11.64
2022-12-11T12:09:14.581Z,21.89
2022-12-11T12:11:46.734Z,13.25
2022-12-11T12:14:52.202Z,11.47
2022-12-11T12:17:55.744Z,10.01
2022-12-11T12:20:37.354Z,10.74
2022-12-11T12:23:22.611Z,10.48
2022-12-11T12:26:17.554Z,10.32
2022-12-11T12:28:50.187Z,10.52
2022-12-11T12:31:39.765Z,11.57
2022-12-11T12:34:40.373Z,10.88
2022-12-11T12:37:36.414Z,11.12
2022-12-11T12:40:08.811Z,11.13
2022-12-11T12:42:56.274Z,11.90
2022-12-11T12:45:32.059Z,12.87
2022-12-11T12:47:58.728Z,13.07
2022-12-11T12:50:26.950Z,13.27
2022-12-11T12:52:54.569Z,13.51
2022-12-11T12:55:30.144Z,14.13
2022-12-11T12:57:58.571Z,14.64
2022-12-11T13:00:42.336Z,14.89
2022-12-11T13:03:30.470Z,14.29
2022-12-11T13:06:01.250Z,15.36
2022-12-11T13:08:30.863Z,14.78
2022-12-11T13:11:08.625Z,15.01
2022-12-11T13:13:38.113Z,15.64
2022-12-11T13:16:16.964Z,14.91
2022-12-11T13:18:44.996Z,15.05
2022-12-11T13:21:26.335Z,15.25
2022-12-11T13:23:53.062Z,15.28
2022-12-11T13:26:32.773Z,15.06
2022-12-11T13:28:59.433Z,14.91
2022-12-11T13:31:38.867Z,14.74
2022-12-11T13:34:23.641Z,15.23
2022-12-11T13:36:51.872Z,15.42
2022-12-11T13:39:26.165Z,15.32
2022-12-11T13:41:55.075Z,14.95
2022-12-11T13:44:27.438Z,14.54
2022-12-11T13:46:55.346Z,14.66
2022-12-11T13:49:27.716Z,15.06
2022-12-11T13:51:57.016Z,14.55
2022-12-11T13:54:23.725Z,14.53
2022-12-11T13:57:00.350Z,14.62
2022-12-11T13:59:33.746Z,14.11
2022-12-11T14:02:04.109Z,14.50
2022-12-11T14:04:30.861Z,15.04
2022-12-11T14:06:57.586Z,15.07
2022-12-11T14:09:25.199Z,15.15
2022-12-11T14:11:56.661Z,15.35
2022-12-11T14:14:31.222Z,15.36
2022-12-11T14:16:57.988Z,15.66
2022-12-11T14:19:24.798Z,15.71
2022-12-11T14:21:59.142Z,15.96
2022-12-11T14:24:25.807Z,16.16
2022-12-11T14:26:52.975Z,15.69
2022-12-11T14:29:31.514Z,15.86
2022-12-11T14:32:03.111Z,16.34
2022-12-11T14:34:34.952Z,15.99
2022-12-11T14:37:02.519Z,16.02
2022-12-11T14:39:38.436Z,16.05
2022-12-11T14:42:09.061Z,15.54
2022-12-11T14:44:46.268Z,16.61
2022-12-11T14:47:24.095Z,16.46
2022-12-11T14:50:03.564Z,16.17
2022-12-11T14:52:36.309Z,16.16
2022-12-11T14:55:08.261Z,16.20
2022-12-11T14:57:34.925Z,16.83
2022-12-11T15:00:01.590Z,16.19
2022-12-11T15:02:32.926Z,16.03
2022-12-11T15:05:16.988Z,16.58
2022-12-11T15:07:53.566Z,16.15
2022-12-11T15:10:29.463Z,16.43
2022-12-11T15:12:56.103Z,16.47
2022-12-11T15:15:22.748Z,16.35
2022-12-11T15:17:52.705Z,16.22
2022-12-11T15:20:29.431Z,19.57
2022-12-11T15:22:58.020Z,17.49
2022-12-11T15:25:26.947Z,16.72
2022-12-11T15:27:58.223Z,17.08
2022-12-11T15:30:26.798Z,16.72
2022-12-11T15:33:17.326Z,17.42
2022-12-11T15:35:56.426Z,17.30
2022-12-11T15:38:33.640Z,17.14
2022-12-11T15:41:00.447Z,17.65
2022-12-11T15:43:27.574Z,18.71
2022-12-11T15:45:54.264Z,17.95
2022-12-11T15:48:20.930Z,18.42
2022-12-11T15:50:47.566Z,18.43
2022-12-11T15:53:14.222Z,17.98
2022-12-11T15:55:40.940Z,17.54
2022-12-11T15:58:08.850Z,18.33
2022-12-11T16:00:35.497Z,18.26
2022-12-11T16:03:02.179Z,17.11
2022-12-11T16:05:28.830Z,17.64
2022-12-11T16:07:55.480Z,17.59
2022-12-11T16:10:22.180Z,17.71
2022-12-11T16:12:48.797Z,17.47
2022-12-11T16:15:21.637Z,16.72
2022-12-11T16:17:50.003Z,17.41
2022-12-11T16:20:16.661Z,17.01
2022-12-11T16:22:43.302Z,16.91
2022-12-11T16:25:10.275Z,17.09
2022-12-11T16:27:37.138Z,17.29
2022-12-11T16:30:03.910Z,17.49
2022-12-11T16:32:33.628Z,17.40
2022-12-11T16:35:03.947Z,18.15
2022-12-11T16:37:30.546Z,18.26
2022-12-11T16:39:57.149Z,18.16
2022-12-11T16:42:23.790Z,18.97
2022-12-11T16:44:50.545Z,17.92
2022-12-11T16:47:17.264Z,17.32
2022-12-11T16:49:43.916Z,16.98
2022-12-11T16:52:10.524Z,16.88
2022-12-11T16:54:37.294Z,17.34
2022-12-11T16:57:04.013Z,16.50
2022-12-11T16:59:36.645Z,16.65
2022-12-11T17:02:04.060Z,16.21
2022-12-11T17:04:30.715Z,16.92
2022-12-11T17:06:57.487Z,16.79
2022-12-11T17:09:24.186Z,18.00
2022-12-11T17:11:50.879Z,17.84
2022-12-11T17:14:17.575Z,18.31
2022-12-11T17:16:44.222Z,18.80
2022-12-11T17:19:10.865Z,19.21
2022-12-11T17:21:37.543Z,18.91
2022-12-11T17:24:04.257Z,18.46
2022-12-11T17:26:31.260Z,19.01
2022-12-11T17:28:57.911Z,19.11
2022-12-11T17:31:24.630Z,19.96
2022-12-11T17:33:51.384Z,19.62
2022-12-11T17:36:20.277Z,19.70
2022-12-11T17:38:47.268Z,19.25
2022-12-11T17:41:20.039Z,19.11
2022-12-11T17:43:48.373Z,19.01
2022-12-11T17:46:15.089Z,18.04
2022-12-11T17:48:44.303Z,17.63
2022-12-11T17:51:12.531Z,17.68
2022-12-11T17:53:39.183Z,17.18
2022-12-11T17:56:07.528Z,17.14
2022-12-11T17:58:34.210Z,17.17
2022-12-11T18:01:03.528Z,16.87
2022-12-11T18:03:30.209Z,16.60
2022-12-11T18:05:57.117Z,16.18
2022-12-11T18:08:27.240Z,16.20
2022-12-11T18:10:53.959Z,16.33
2022-12-11T18:13:20.866Z,16.02
2022-12-11T18:15:47.604Z,16.72
2022-12-11T18:18:14.344Z,16.39
2022-12-11T18:20:40.943Z,16.85
2022-12-11T18:23:07.559Z,16.85
2022-12-11T18:25:34.250Z,16.79
2022-12-11T18:28:01.079Z,17.17
2022-12-11T18:30:27.710Z,16.43
2022-12-11T18:32:54.398Z,15.99
2022-12-11T18:35:21.121Z,16.29
2022-12-11T18:37:47.775Z,17.21
2022-12-11T18:40:14.441Z,17.37
2022-12-11T18:42:44.310Z,17.65
2022-12-11T18:45:11.377Z,17.69
2022-12-11T18:47:38.164Z,18.55
2022-12-11T18:50:08.042Z,18.28
2022-12-11T18:52:35.191Z,19.09
2022-12-11T18:55:01.912Z,18.90
2022-12-11T18:57:28.603Z,19.75
2022-12-11T18:59:55.233Z,19.97
2022-12-11T19:02:21.977Z,19.60
2022-12-11T19:04:48.717Z,19.70
2022-12-11T19:07:15.403Z,20.35
2022-12-11T19:09:47.616Z,20.64
2022-12-11T19:12:14.805Z,21.73
2022-12-11T19:14:41.972Z,20.10
2022-12-11T19:17:08.635Z,20.10
2022-12-11T19:19:35.382Z,20.55
2022-12-11T19:22:02.028Z,20.85
2022-12-11T19:24:28.752Z,19.69
2022-12-11T19:26:55.424Z,20.15
2022-12-11T19:29:26.856Z,21.38
2022-12-11T19:31:53.885Z,20.50
2022-12-11T19:34:20.594Z,20.82
2022-12-11T19:36:47.276Z,21.40
2022-12-11T19:39:13.937Z,21.56
2022-12-11T19:41:40.649Z,21.12
2022-12-11T19:44:07.445Z,20.86
2022-12-11T19:46:34.308Z,20.67
2022-12-11T19:49:00.997Z,20.71
2022-12-11T19:51:38.232Z,20.59
2022-12-11T19:54:05.997Z,21.06
2022-12-11T19:56:32.898Z,20.42
2022-12-11T19:59:01.153Z,21.29
2022-12-11T20:01:30.560Z,22.00
2022-12-11T20:03:58.733Z,22.78
2022-12-11T20:06:27.530Z,22.20
2022-12-11T20:08:54.237Z,22.14
2022-12-11T20:11:20.971Z,22.34
2022-12-11T20:13:47.814Z,21.83
2022-12-11T20:16:15.628Z,21.07
2022-12-11T20:18:42.356Z,21.68
2022-12-11T20:21:11.421Z,21.24
2022-12-11T20:23:38.051Z,20.90
2022-12-11T20:26:08.023Z,21.10
2022-12-11T20:28:34.627Z,22.13
2022-12-11T20:31:19.733Z,22.89
2022-12-11T20:33:47.025Z,22.86
2022-12-11T20:36:15.800Z,22.66
2022-12-11T20:38:42.813Z,22.17
2022-12-11T20:41:10.280Z,22.44
2022-12-11T20:43:37.376Z,24.44
2022-12-11T20:46:07.941Z,23.88
2022-12-11T20:48:34.598Z,22.28
2022-12-11T20:51:05.399Z,22.59
2022-12-11T20:53:32.076Z,22.48
2022-12-11T20:55:58.696Z,23.42
2022-12-11T20:58:25.363Z,23.68
2022-12-11T21:00:52.705Z,22.93
2022-12-11T21:03:19.437Z,22.52
2022-12-11T21:05:46.065Z,22.98
2022-12-11T21:08:12.841Z,22.43
2022-12-11T21:10:43.750Z,22.51
2022-12-11T21:13:10.456Z,22.25
2022-12-11T21:15:37.942Z,22.45
2022-12-11T21:18:04.979Z,22.53
2022-12-11T21:20:31.735Z,22.70
2022-12-11T21:22:58.333Z,22.40
2022-12-11T21:25:25.266Z,22.14
2022-12-11T21:27:51.889Z,21.80
2022-12-11T21:30:18.525Z,21.31
2022-12-11T21:32:45.205Z,20.48
2022-12-11T21:35:12.474Z,20.82
2022-12-11T21:37:39.390Z,20.88
2022-12-11T21:40:06.564Z,20.91
2022-12-11T21:42:33.208Z,21.97
2022-12-11T21:45:52.311Z,21.34
2022-12-11T21:47:46.489Z,21.86
2022-12-11T21:50:13.118Z,21.40
2022-12-11T21:52:39.742Z,21.42
2022-12-11T21:55:06.741Z,21.33
2022-12-11T21:57:33.411Z,21.03
2022-12-11T22:00:00.056Z,20.81
2022-12-11T22:02:26.855Z,20.34
2022-12-11T22:04:53.520Z,20.46
2022-12-11T22:07:20.146Z,19.90
2022-12-11T22:09:46.790Z,19.64
2022-12-11T22:12:31.525Z,19.75
2022-12-11T22:14:58.133Z,18.96
2022-12-11T22:17:24.788Z,19.33
2022-12-11T22:19:51.470Z,19.26
2022-12-11T22:22:18.084Z,18.65
2022-12-11T22:24:44.737Z,18.41
2022-12-11T22:27:11.386Z,17.75
2022-12-11T22:29:37.974Z,17.78
2022-12-11T22:32:04.626Z,18.09
2022-12-11T22:34:31.222Z,18.15
2022-12-11T22:36:57.811Z,17.61
2022-12-11T22:39:24.466Z,17.59
2022-12-11T22:41:51.115Z,16.95
2022-12-11T22:44:19.252Z,17.17
2022-12-11T22:46:49.867Z,16.86
2022-12-11T22:49:17.912Z,17.11
2022-12-11T22:51:44.678Z,16.98
2022-12-11T22:54:11.278Z,16.70
2022-12-11T22:56:38.333Z,16.66
2022-12-11T22:59:04.927Z,16.81
2022-12-11T23:01:31.557Z,16.33
2022-12-11T23:03:58.237Z,16.21
2022-12-11T23:06:24.906Z,16.15
2022-12-11T23:08:52.909Z,16.10
2022-12-11T23:11:24.933Z,16.12
2022-12-11T23:13:52.035Z,16.11
2022-12-11T23:16:18.846Z,15.65
2022-12-11T23:18:45.488Z,15.57
2022-12-11T23:21:12.203Z,14.87
2022-12-11T23:23:38.800Z,15.27
2022-12-11T23:26:05.833Z,15.86
2022-12-11T23:28:32.565Z,14.98
2022-12-11T23:30:59.415Z,14.83
2022-12-11T23:33:26.215Z,14.68
2022-12-11T23:35:52.967Z,15.08
2022-12-11T23:38:19.629Z,15.29
2022-12-11T23:40:46.284Z,15.94
2022-12-11T23:43:12.945Z,15.73
2022-12-11T23:45:39.544Z,15.48
2022-12-11T23:48:06.177Z,15.37
2022-12-11T23:50:32.909Z,15.52
2022-12-11T23:52:59.590Z,15.21
2022-12-11T23:55:26.199Z,15.28
2022-12-11T23:57:53.349Z,15.27
